Lake Alma, Canada
Current Conditions -  °F | °C
As of 12:15 AM on Sunday 21 Dec 2014 (Local Time) from KD50 Reporting Station
Clear Clear  
Wind Chill: 12°   Ceiling: Unl
Heat Index: 23°   Visibility: 10mi
Dew Point: 23°   Wind: 12mph
Humidity: 100%   Direction: 210°SSW
Pressure: 29.68"   Gusts: NA
Location:  49.13°N, 104.18°W
Report Text: KD50 210615Z AUTO 21010KT 10SM CLR M05/M05 A2968 RMK AO2
Loading
Personal Weather Stations






























Interactive Weather Map New forecast layout! Learn more

10-Day Weather Forecast

Advertisements
Track Severe Weather on mobile